sensor_id;sensor_type;location;lat;lon;timestamp;P1;durP1;ratioP1;P2;durP2;ratioP2
10347;SDS011;5220;43.192;23.284;2023-04-19T00:01:08;8.07;;;6.72;;
10347;SDS011;5220;43.192;23.284;2023-04-19T00:03:36;6.95;;;5.88;;
10347;SDS011;5220;43.192;23.284;2023-04-19T00:06:04;7.57;;;6.55;;
10347;SDS011;5220;43.192;23.284;2023-04-19T00:08:32;6.35;;;5.75;;
10347;SDS011;5220;43.192;23.284;2023-04-19T00:10:59;8.45;;;5.90;;
10347;SDS011;5220;43.192;23.284;2023-04-19T00:13:25;7.63;;;5.50;;
10347;SDS011;5220;43.192;23.284;2023-04-19T00:15:52;6.80;;;5.78;;
10347;SDS011;5220;43.192;23.284;2023-04-19T00:18:19;5.90;;;5.15;;
10347;SDS011;5220;43.192;23.284;2023-04-19T00:20:45;7.45;;;6.05;;
10347;SDS011;5220;43.192;23.284;2023-04-19T00:23:14;9.15;;;6.00;;
10347;SDS011;5220;43.192;23.284;2023-04-19T00:25:41;6.40;;;5.80;;
10347;SDS011;5220;43.192;23.284;2023-04-19T00:28:07;6.13;;;4.03;;
10347;SDS011;5220;43.192;23.284;2023-04-19T00:30:34;3.95;;;3.30;;
10347;SDS011;5220;43.192;23.284;2023-04-19T00:33:01;3.88;;;3.58;;
10347;SDS011;5220;43.192;23.284;2023-04-19T00:35:27;10.52;;;8.32;;
10347;SDS011;5220;43.192;23.284;2023-04-19T00:37:54;14.88;;;11.23;;
10347;SDS011;5220;43.192;23.284;2023-04-19T00:40:22;25.15;;;17.65;;
10347;SDS011;5220;43.192;23.284;2023-04-19T00:42:49;23.30;;;17.80;;
10347;SDS011;5220;43.192;23.284;2023-04-19T00:45:16;24.10;;;16.48;;
10347;SDS011;5220;43.192;23.284;2023-04-19T00:47:43;22.95;;;16.45;;
10347;SDS011;5220;43.192;23.284;2023-04-19T00:50:10;20.63;;;14.55;;
10347;SDS011;5220;43.192;23.284;2023-04-19T00:52:37;15.88;;;11.98;;
10347;SDS011;5220;43.192;23.284;2023-04-19T00:55:05;18.48;;;13.30;;
10347;SDS011;5220;43.192;23.284;2023-04-19T00:57:34;19.85;;;13.90;;
10347;SDS011;5220;43.192;23.284;2023-04-19T01:00:02;38.75;;;27.95;;
10347;SDS011;5220;43.192;23.284;2023-04-19T01:02:32;36.38;;;25.27;;
10347;SDS011;5220;43.192;23.284;2023-04-19T01:04:59;19.77;;;13.95;;
10347;SDS011;5220;43.192;23.284;2023-04-19T01:07:26;16.42;;;11.40;;
10347;SDS011;5220;43.192;23.284;2023-04-19T01:09:54;10.05;;;7.70;;
10347;SDS011;5220;43.192;23.284;2023-04-19T01:12:21;7.05;;;4.65;;
10347;SDS011;5220;43.192;23.284;2023-04-19T01:14:49;4.38;;;3.97;;
10347;SDS011;5220;43.192;23.284;2023-04-19T01:17:16;4.78;;;3.85;;
10347;SDS011;5220;43.192;23.284;2023-04-19T01:19:43;5.95;;;4.03;;
10347;SDS011;5220;43.192;23.284;2023-04-19T01:22:15;6.88;;;3.85;;
10347;SDS011;5220;43.192;23.284;2023-04-19T01:24:42;4.75;;;4.25;;
10347;SDS011;5220;43.192;23.284;2023-04-19T01:27:09;5.22;;;4.63;;
10347;SDS011;5220;43.192;23.284;2023-04-19T01:29:35;7.53;;;6.18;;
10347;SDS011;5220;43.192;23.284;2023-04-19T01:32:02;10.05;;;5.88;;
10347;SDS011;5220;43.192;23.284;2023-04-19T01:34:29;6.50;;;5.90;;
10347;SDS011;5220;43.192;23.284;2023-04-19T01:36:55;6.35;;;5.75;;
10347;SDS011;5220;43.192;23.284;2023-04-19T01:39:24;13.90;;;6.07;;
10347;SDS011;5220;43.192;23.284;2023-04-19T01:41:51;7.85;;;5.80;;
10347;SDS011;5220;43.192;23.284;2023-04-19T01:44:18;7.75;;;5.90;;
10347;SDS011;5220;43.192;23.284;2023-04-19T01:46:44;7.95;;;5.97;;
10347;SDS011;5220;43.192;23.284;2023-04-19T01:49:11;10.27;;;6.20;;
10347;SDS011;5220;43.192;23.284;2023-04-19T01:51:38;6.47;;;5.07;;
10347;SDS011;5220;43.192;23.284;2023-04-19T01:54:05;5.78;;;5.15;;
10347;SDS011;5220;43.192;23.284;2023-04-19T01:56:33;6.72;;;5.70;;
10347;SDS011;5220;43.192;23.284;2023-04-19T01:59:00;5.90;;;5.30;;
10347;SDS011;5220;43.192;23.284;2023-04-19T02:01:28;5.85;;;4.93;;
10347;SDS011;5220;43.192;23.284;2023-04-19T02:03:54;9.07;;;4.78;;
10347;SDS011;5220;43.192;23.284;2023-04-19T02:06:21;5.47;;;4.97;;
10347;SDS011;5220;43.192;23.284;2023-04-19T02:08:48;6.90;;;4.70;;
10347;SDS011;5220;43.192;23.284;2023-04-19T02:11:15;5.68;;;4.03;;
10347;SDS011;5220;43.192;23.284;2023-04-19T02:13:43;6.20;;;4.47;;
10347;SDS011;5220;43.192;23.284;2023-04-19T02:16:09;4.10;;;3.70;;
10347;SDS011;5220;43.192;23.284;2023-04-19T02:18:36;6.97;;;4.00;;
10347;SDS011;5220;43.192;23.284;2023-04-19T02:21:04;4.20;;;3.78;;
10347;SDS011;5220;43.192;23.284;2023-04-19T02:23:32;4.18;;;3.78;;
10347;SDS011;5220;43.192;23.284;2023-04-19T02:25:59;4.78;;;3.35;;
10347;SDS011;5220;43.192;23.284;2023-04-19T02:28:27;4.72;;;3.85;;
10347;SDS011;5220;43.192;23.284;2023-04-19T02:30:55;4.78;;;3.80;;
10347;SDS011;5220;43.192;23.284;2023-04-19T02:33:22;3.40;;;3.05;;
10347;SDS011;5220;43.192;23.284;2023-04-19T02:35:48;5.97;;;3.90;;
10347;SDS011;5220;43.192;23.284;2023-04-19T02:38:15;4.68;;;3.75;;
10347;SDS011;5220;43.192;23.284;2023-04-19T02:40:42;4.25;;;3.72;;
10347;SDS011;5220;43.192;23.284;2023-04-19T02:43:08;4.28;;;3.85;;
10347;SDS011;5220;43.192;23.284;2023-04-19T02:45:35;4.88;;;4.38;;
10347;SDS011;5220;43.192;23.284;2023-04-19T02:48:03;8.48;;;5.32;;
10347;SDS011;5220;43.192;23.284;2023-04-19T02:50:30;6.47;;;5.38;;
10347;SDS011;5220;43.192;23.284;2023-04-19T02:52:57;21.83;;;15.75;;
10347;SDS011;5220;43.192;23.284;2023-04-19T02:55:24;18.13;;;12.48;;
10347;SDS011;5220;43.192;23.284;2023-04-19T02:57:51;12.30;;;8.07;;
10347;SDS011;5220;43.192;23.284;2023-04-19T03:00:17;20.40;;;12.68;;
10347;SDS011;5220;43.192;23.284;2023-04-19T03:02:44;22.35;;;13.95;;
10347;SDS011;5220;43.192;23.284;2023-04-19T03:05:12;25.20;;;16.00;;
10347;SDS011;5220;43.192;23.284;2023-04-19T03:07:39;24.55;;;14.48;;
10347;SDS011;5220;43.192;23.284;2023-04-19T03:10:06;20.50;;;12.10;;
10347;SDS011;5220;43.192;23.284;2023-04-19T03:12:34;14.52;;;9.25;;
10347;SDS011;5220;43.192;23.284;2023-04-19T03:15:00;9.77;;;6.68;;
10347;SDS011;5220;43.192;23.284;2023-04-19T03:17:27;4.63;;;4.05;;
10347;SDS011;5220;43.192;23.284;2023-04-19T03:19:54;3.70;;;3.40;;
10347;SDS011;5220;43.192;23.284;2023-04-19T03:22:22;4.32;;;3.90;;
10347;SDS011;5220;43.192;23.284;2023-04-19T03:24:49;16.88;;;14.73;;
10347;SDS011;5220;43.192;23.284;2023-04-19T03:27:16;26.48;;;23.85;;
10347;SDS011;5220;43.192;23.284;2023-04-19T03:29:42;18.65;;;16.95;;
10347;SDS011;5220;43.192;23.284;2023-04-19T03:32:09;17.95;;;16.45;;
10347;SDS011;5220;43.192;23.284;2023-04-19T03:34:36;9.82;;;8.82;;
10347;SDS011;5220;43.192;23.284;2023-04-19T03:37:02;7.03;;;6.40;;
10347;SDS011;5220;43.192;23.284;2023-04-19T03:39:31;5.70;;;5.07;;
10347;SDS011;5220;43.192;23.284;2023-04-19T03:41:58;5.57;;;4.53;;
10347;SDS011;5220;43.192;23.284;2023-04-19T03:44:25;4.97;;;3.72;;
10347;SDS011;5220;43.192;23.284;2023-04-19T03:46:52;4.57;;;3.95;;
10347;SDS011;5220;43.192;23.284;2023-04-19T03:49:18;4.25;;;3.78;;
10347;SDS011;5220;43.192;23.284;2023-04-19T03:51:45;6.60;;;3.33;;
10347;SDS011;5220;43.192;23.284;2023-04-19T03:54:12;4.18;;;2.85;;
10347;SDS011;5220;43.192;23.284;2023-04-19T03:56:40;3.30;;;3.00;;
10347;SDS011;5220;43.192;23.284;2023-04-19T03:59:07;3.03;;;2.78;;
10347;SDS011;5220;43.192;23.284;2023-04-19T04:01:35;3.30;;;2.53;;
10347;SDS011;5220;43.192;23.284;2023-04-19T04:04:05;2.63;;;2.42;;
10347;SDS011;5220;43.192;23.284;2023-04-19T04:06:32;3.78;;;2.30;;
10347;SDS011;5220;43.192;23.284;2023-04-19T04:08:59;4.00;;;2.58;;
10347;SDS011;5220;43.192;23.284;2023-04-19T04:11:26;3.00;;;2.75;;
10347;SDS011;5220;43.192;23.284;2023-04-19T04:13:55;5.20;;;3.60;;
10347;SDS011;5220;43.192;23.284;2023-04-19T04:16:22;3.05;;;2.63;;
10347;SDS011;5220;43.192;23.284;2023-04-19T04:18:48;9.20;;;3.53;;
10347;SDS011;5220;43.192;23.284;2023-04-19T04:21:15;5.68;;;3.10;;
10347;SDS011;5220;43.192;23.284;2023-04-19T04:23:42;5.47;;;2.92;;
10347;SDS011;5220;43.192;23.284;2023-04-19T04:26:09;6.25;;;3.50;;
10347;SDS011;5220;43.192;23.284;2023-04-19T04:28:37;6.32;;;4.22;;
10347;SDS011;5220;43.192;23.284;2023-04-19T04:31:06;10.68;;;4.82;;
10347;SDS011;5220;43.192;23.284;2023-04-19T04:33:33;7.22;;;5.10;;
10347;SDS011;5220;43.192;23.284;2023-04-19T04:36:00;8.65;;;4.25;;
10347;SDS011;5220;43.192;23.284;2023-04-19T04:38:27;8.15;;;3.55;;
10347;SDS011;5220;43.192;23.284;2023-04-19T04:40:55;3.75;;;3.25;;
10347;SDS011;5220;43.192;23.284;2023-04-19T04:43:23;10.13;;;4.45;;
10347;SDS011;5220;43.192;23.284;2023-04-19T04:45:53;10.48;;;5.38;;
10347;SDS011;5220;43.192;23.284;2023-04-19T04:48:23;12.43;;;5.13;;
10347;SDS011;5220;43.192;23.284;2023-04-19T04:50:50;7.75;;;4.95;;
10347;SDS011;5220;43.192;23.284;2023-04-19T04:53:17;9.80;;;5.45;;
10347;SDS011;5220;43.192;23.284;2023-04-19T04:55:44;12.75;;;6.00;;
10347;SDS011;5220;43.192;23.284;2023-04-19T04:58:11;12.38;;;5.68;;
10347;SDS011;5220;43.192;23.284;2023-04-19T05:00:37;13.25;;;6.28;;
10347;SDS011;5220;43.192;23.284;2023-04-19T05:03:04;11.60;;;6.80;;
10347;SDS011;5220;43.192;23.284;2023-04-19T05:05:32;12.30;;;7.00;;
10347;SDS011;5220;43.192;23.284;2023-04-19T05:07:59;14.13;;;7.07;;
10347;SDS011;5220;43.192;23.284;2023-04-19T05:10:26;10.52;;;7.10;;
10347;SDS011;5220;43.192;23.284;2023-04-19T05:12:53;10.77;;;6.85;;
10347;SDS011;5220;43.192;23.284;2023-04-19T05:15:19;12.63;;;6.78;;
10347;SDS011;5220;43.192;23.284;2023-04-19T05:17:47;15.43;;;7.70;;
10347;SDS011;5220;43.192;23.284;2023-04-19T05:20:14;11.00;;;7.22;;
10347;SDS011;5220;43.192;23.284;2023-04-19T05:22:42;10.20;;;6.22;;
10347;SDS011;5220;43.192;23.284;2023-04-19T05:25:09;15.40;;;6.80;;
10347;SDS011;5220;43.192;23.284;2023-04-19T05:27:36;14.18;;;6.30;;
10347;SDS011;5220;43.192;23.284;2023-04-19T05:30:03;10.73;;;6.85;;
10347;SDS011;5220;43.192;23.284;2023-04-19T05:32:31;12.95;;;6.63;;
10347;SDS011;5220;43.192;23.284;2023-04-19T05:34:58;21.75;;;8.90;;
10347;SDS011;5220;43.192;23.284;2023-04-19T05:37:25;13.93;;;7.72;;
10347;SDS011;5220;43.192;23.284;2023-04-19T05:39:53;17.08;;;8.27;;
10347;SDS011;5220;43.192;23.284;2023-04-19T05:42:19;16.08;;;9.35;;
10347;SDS011;5220;43.192;23.284;2023-04-19T05:44:46;19.35;;;10.23;;
10347;SDS011;5220;43.192;23.284;2023-04-19T05:47:13;13.77;;;9.07;;
10347;SDS011;5220;43.192;23.284;2023-04-19T05:49:41;19.48;;;11.40;;
10347;SDS011;5220;43.192;23.284;2023-04-19T05:52:08;20.02;;;12.20;;
10347;SDS011;5220;43.192;23.284;2023-04-19T05:54:35;22.05;;;12.90;;
10347;SDS011;5220;43.192;23.284;2023-04-19T05:57:03;22.38;;;12.88;;
10347;SDS011;5220;43.192;23.284;2023-04-19T05:59:30;21.33;;;13.07;;
10347;SDS011;5220;43.192;23.284;2023-04-19T06:01:56;21.55;;;13.13;;
10347;SDS011;5220;43.192;23.284;2023-04-19T06:04:23;26.08;;;15.15;;
10347;SDS011;5220;43.192;23.284;2023-04-19T06:06:50;26.67;;;15.75;;
10347;SDS011;5220;43.192;23.284;2023-04-19T06:09:16;24.55;;;15.68;;
10347;SDS011;5220;43.192;23.284;2023-04-19T06:11:43;22.88;;;14.48;;
10347;SDS011;5220;43.192;23.284;2023-04-19T06:14:11;26.95;;;15.65;;
10347;SDS011;5220;43.192;23.284;2023-04-19T06:16:38;31.92;;;16.13;;
10347;SDS011;5220;43.192;23.284;2023-04-19T06:19:05;26.30;;;15.23;;
10347;SDS011;5220;43.192;23.284;2023-04-19T06:21:32;27.52;;;16.10;;
10347;SDS011;5220;43.192;23.284;2023-04-19T06:23:59;30.67;;;16.63;;
10347;SDS011;5220;43.192;23.284;2023-04-19T06:26:26;27.60;;;14.45;;
10347;SDS011;5220;43.192;23.284;2023-04-19T06:28:53;29.08;;;15.35;;
10347;SDS011;5220;43.192;23.284;2023-04-19T06:31:21;31.83;;;14.30;;
10347;SDS011;5220;43.192;23.284;2023-04-19T06:33:48;31.80;;;14.90;;
10347;SDS011;5220;43.192;23.284;2023-04-19T06:36:15;31.58;;;15.02;;
10347;SDS011;5220;43.192;23.284;2023-04-19T06:38:43;33.63;;;16.33;;
10347;SDS011;5220;43.192;23.284;2023-04-19T06:41:10;32.28;;;15.25;;
10347;SDS011;5220;43.192;23.284;2023-04-19T06:43:37;30.70;;;15.15;;
10347;SDS011;5220;43.192;23.284;2023-04-19T06:46:04;29.35;;;14.23;;
10347;SDS011;5220;43.192;23.284;2023-04-19T06:48:33;50.28;;;31.20;;
10347;SDS011;5220;43.192;23.284;2023-04-19T06:51:00;26.08;;;15.40;;
10347;SDS011;5220;43.192;23.284;2023-04-19T06:53:26;29.70;;;15.90;;
10347;SDS011;5220;43.192;23.284;2023-04-19T06:58:23;20.95;;;13.48;;
10347;SDS011;5220;43.192;23.284;2023-04-19T07:00:51;26.70;;;16.55;;
10347;SDS011;5220;43.192;23.284;2023-04-19T07:03:17;20.67;;;14.43;;
10347;SDS011;5220;43.192;23.284;2023-04-19T07:05:45;19.15;;;14.32;;
10347;SDS011;5220;43.192;23.284;2023-04-19T07:08:12;24.77;;;15.88;;
10347;SDS011;5220;43.192;23.284;2023-04-19T07:10:39;21.02;;;15.18;;
10347;SDS011;5220;43.192;23.284;2023-04-19T07:13:07;22.13;;;16.00;;
10347;SDS011;5220;43.192;23.284;2023-04-19T07:15:34;21.85;;;15.65;;
10347;SDS011;5220;43.192;23.284;2023-04-19T07:18:01;32.67;;;18.70;;
10347;SDS011;5220;43.192;23.284;2023-04-19T07:20:28;23.80;;;16.15;;
10347;SDS011;5220;43.192;23.284;2023-04-19T07:22:57;32.03;;;20.35;;
10347;SDS011;5220;43.192;23.284;2023-04-19T07:25:23;31.85;;;20.25;;
10347;SDS011;5220;43.192;23.284;2023-04-19T07:27:51;28.13;;;18.10;;
10347;SDS011;5220;43.192;23.284;2023-04-19T07:30:18;24.55;;;17.25;;
10347;SDS011;5220;43.192;23.284;2023-04-19T07:32:45;22.05;;;14.50;;
10347;SDS011;5220;43.192;23.284;2023-04-19T07:35:12;24.83;;;16.67;;
10347;SDS011;5220;43.192;23.284;2023-04-19T07:37:39;26.33;;;15.52;;
10347;SDS011;5220;43.192;23.284;2023-04-19T07:40:07;22.08;;;15.43;;
10347;SDS011;5220;43.192;23.284;2023-04-19T07:42:35;24.65;;;14.82;;
10347;SDS011;5220;43.192;23.284;2023-04-19T07:45:02;23.85;;;15.63;;
10347;SDS011;5220;43.192;23.284;2023-04-19T07:47:29;26.40;;;14.05;;
10347;SDS011;5220;43.192;23.284;2023-04-19T07:49:56;25.85;;;13.32;;
10347;SDS011;5220;43.192;23.284;2023-04-19T07:52:23;25.73;;;13.90;;
10347;SDS011;5220;43.192;23.284;2023-04-19T07:54:50;19.52;;;11.52;;
10347;SDS011;5220;43.192;23.284;2023-04-19T07:57:18;15.18;;;11.27;;
10347;SDS011;5220;43.192;23.284;2023-04-19T07:59:44;18.25;;;11.50;;
10347;SDS011;5220;43.192;23.284;2023-04-19T08:02:12;20.65;;;12.70;;
10347;SDS011;5220;43.192;23.284;2023-04-19T08:04:40;21.85;;;13.10;;
10347;SDS011;5220;43.192;23.284;2023-04-19T08:07:07;24.50;;;13.55;;
10347;SDS011;5220;43.192;23.284;2023-04-19T08:09:34;27.55;;;13.55;;
10347;SDS011;5220;43.192;23.284;2023-04-19T08:12:02;28.35;;;14.88;;
10347;SDS011;5220;43.192;23.284;2023-04-19T08:14:30;24.38;;;15.40;;
10347;SDS011;5220;43.192;23.284;2023-04-19T08:16:56;24.13;;;15.00;;
10347;SDS011;5220;43.192;23.284;2023-04-19T08:19:23;20.00;;;13.15;;
10347;SDS011;5220;43.192;23.284;2023-04-19T08:21:50;19.52;;;12.35;;
10347;SDS011;5220;43.192;23.284;2023-04-19T08:24:16;21.98;;;12.73;;
10347;SDS011;5220;43.192;23.284;2023-04-19T08:26:43;16.30;;;10.48;;
10347;SDS011;5220;43.192;23.284;2023-04-19T08:29:17;20.83;;;10.18;;
10347;SDS011;5220;43.192;23.284;2023-04-19T08:31:46;19.52;;;11.52;;
10347;SDS011;5220;43.192;23.284;2023-04-19T08:34:12;17.15;;;11.68;;
10347;SDS011;5220;43.192;23.284;2023-04-19T08:36:39;92.80;;;55.05;;
10347;SDS011;5220;43.192;23.284;2023-04-19T08:39:06;32.53;;;21.02;;
10347;SDS011;5220;43.192;23.284;2023-04-19T08:41:33;23.67;;;13.55;;
10347;SDS011;5220;43.192;23.284;2023-04-19T08:44:00;23.10;;;12.10;;
10347;SDS011;5220;43.192;23.284;2023-04-19T08:46:29;18.35;;;11.77;;
10347;SDS011;5220;43.192;23.284;2023-04-19T08:48:58;20.25;;;10.38;;
10347;SDS011;5220;43.192;23.284;2023-04-19T08:51:25;14.40;;;9.10;;
10347;SDS011;5220;43.192;23.284;2023-04-19T08:53:55;15.68;;;9.75;;
10347;SDS011;5220;43.192;23.284;2023-04-19T08:56:23;19.08;;;9.13;;
10347;SDS011;5220;43.192;23.284;2023-04-19T08:58:50;17.45;;;10.23;;
10347;SDS011;5220;43.192;23.284;2023-04-19T09:01:17;14.10;;;8.18;;
10347;SDS011;5220;43.192;23.284;2023-04-19T09:03:44;13.52;;;8.55;;
10347;SDS011;5220;43.192;23.284;2023-04-19T09:06:12;28.63;;;12.68;;
10347;SDS011;5220;43.192;23.284;2023-04-19T09:08:39;14.20;;;8.85;;
10347;SDS011;5220;43.192;23.284;2023-04-19T09:11:07;17.70;;;10.55;;
10347;SDS011;5220;43.192;23.284;2023-04-19T09:13:34;14.18;;;8.75;;
10347;SDS011;5220;43.192;23.284;2023-04-19T09:16:03;18.17;;;8.35;;
10347;SDS011;5220;43.192;23.284;2023-04-19T09:18:32;13.98;;;8.73;;
10347;SDS011;5220;43.192;23.284;2023-04-19T09:20:59;10.75;;;7.00;;
10347;SDS011;5220;43.192;23.284;2023-04-19T09:23:27;18.63;;;7.15;;
10347;SDS011;5220;43.192;23.284;2023-04-19T09:25:54;10.90;;;6.40;;
10347;SDS011;5220;43.192;23.284;2023-04-19T09:28:24;14.10;;;10.80;;
10347;SDS011;5220;43.192;23.284;2023-04-19T09:30:51;10.18;;;6.50;;
10347;SDS011;5220;43.192;23.284;2023-04-19T09:33:32;11.77;;;7.03;;
10347;SDS011;5220;43.192;23.284;2023-04-19T09:36:00;13.77;;;9.15;;
10347;SDS011;5220;43.192;23.284;2023-04-19T09:38:29;13.57;;;8.55;;
10347;SDS011;5220;43.192;23.284;2023-04-19T09:41:04;11.93;;;7.95;;
10347;SDS011;5220;43.192;23.284;2023-04-19T09:43:32;10.43;;;8.68;;
10347;SDS011;5220;43.192;23.284;2023-04-19T09:45:59;10.20;;;7.13;;
10347;SDS011;5220;43.192;23.284;2023-04-19T09:48:26;14.00;;;8.10;;
10347;SDS011;5220;43.192;23.284;2023-04-19T09:50:53;9.80;;;6.80;;
10347;SDS011;5220;43.192;23.284;2023-04-19T09:53:21;10.57;;;6.95;;
10347;SDS011;5220;43.192;23.284;2023-04-19T09:55:50;8.88;;;5.55;;
10347;SDS011;5220;43.192;23.284;2023-04-19T09:58:18;6.15;;;5.55;;
10347;SDS011;5220;43.192;23.284;2023-04-19T10:00:45;9.07;;;6.63;;
10347;SDS011;5220;43.192;23.284;2023-04-19T10:03:13;7.03;;;5.90;;
10347;SDS011;5220;43.192;23.284;2023-04-19T10:05:41;11.73;;;7.68;;
10347;SDS011;5220;43.192;23.284;2023-04-19T10:08:09;10.20;;;5.85;;
10347;SDS011;5220;43.192;23.284;2023-04-19T10:10:36;12.93;;;7.63;;
10347;SDS011;5220;43.192;23.284;2023-04-19T10:13:07;6.57;;;4.72;;
10347;SDS011;5220;43.192;23.284;2023-04-19T10:15:36;7.85;;;4.43;;
10347;SDS011;5220;43.192;23.284;2023-04-19T10:18:04;5.93;;;4.80;;
10347;SDS011;5220;43.192;23.284;2023-04-19T10:20:33;8.77;;;4.47;;
10347;SDS011;5220;43.192;23.284;2023-04-19T10:23:05;5.47;;;4.40;;
10347;SDS011;5220;43.192;23.284;2023-04-19T10:25:35;6.90;;;4.25;;
10347;SDS011;5220;43.192;23.284;2023-04-19T10:28:02;7.68;;;4.40;;
10347;SDS011;5220;43.192;23.284;2023-04-19T10:30:31;4.78;;;4.07;;
10347;SDS011;5220;43.192;23.284;2023-04-19T10:32:58;4.45;;;3.95;;
10347;SDS011;5220;43.192;23.284;2023-04-19T10:35:33;7.80;;;5.43;;
10347;SDS011;5220;43.192;23.284;2023-04-19T10:38:05;7.07;;;4.25;;
10347;SDS011;5220;43.192;23.284;2023-04-19T10:43:25;6.35;;;4.22;;
10347;SDS011;5220;43.192;23.284;2023-04-19T10:45:53;7.13;;;5.35;;
10347;SDS011;5220;43.192;23.284;2023-04-19T10:48:30;5.50;;;4.30;;
10347;SDS011;5220;43.192;23.284;2023-04-19T10:50:59;4.32;;;2.83;;
10347;SDS011;5220;43.192;23.284;2023-04-19T10:53:41;8.30;;;6.45;;
10347;SDS011;5220;43.192;23.284;2023-04-19T10:56:09;6.47;;;4.13;;
10347;SDS011;5220;43.192;23.284;2023-04-19T11:01:50;5.88;;;5.28;;
10347;SDS011;5220;43.192;23.284;2023-04-19T11:04:22;6.30;;;5.30;;
10347;SDS011;5220;43.192;23.284;2023-04-19T11:07:02;6.95;;;6.32;;
10347;SDS011;5220;43.192;23.284;2023-04-19T11:09:31;11.98;;;9.93;;
10347;SDS011;5220;43.192;23.284;2023-04-19T11:12:00;11.25;;;8.02;;
10347;SDS011;5220;43.192;23.284;2023-04-19T11:14:32;10.48;;;7.18;;
10347;SDS011;5220;43.192;23.284;2023-04-19T11:17:03;6.70;;;4.75;;
10347;SDS011;5220;43.192;23.284;2023-04-19T11:19:41;6.75;;;2.75;;
10347;SDS011;5220;43.192;23.284;2023-04-19T11:22:10;2.22;;;1.80;;
10347;SDS011;5220;43.192;23.284;2023-04-19T11:24:36;1.60;;;1.50;;
10347;SDS011;5220;43.192;23.284;2023-04-19T11:27:06;2.33;;;1.42;;
10347;SDS011;5220;43.192;23.284;2023-04-19T11:29:33;2.40;;;1.25;;
10347;SDS011;5220;43.192;23.284;2023-04-19T11:32:00;1.38;;;1.27;;
10347;SDS011;5220;43.192;23.284;2023-04-19T11:34:28;1.17;;;1.17;;
10347;SDS011;5220;43.192;23.284;2023-04-19T11:36:55;1.40;;;1.30;;
10347;SDS011;5220;43.192;23.284;2023-04-19T11:39:21;4.85;;;2.08;;
10347;SDS011;5220;43.192;23.284;2023-04-19T11:41:48;1.40;;;1.30;;
10347;SDS011;5220;43.192;23.284;2023-04-19T11:44:15;1.40;;;1.30;;
10347;SDS011;5220;43.192;23.284;2023-04-19T11:46:56;1.52;;;1.40;;
10347;SDS011;5220;43.192;23.284;2023-04-19T11:49:24;1.40;;;1.30;;
10347;SDS011;5220;43.192;23.284;2023-04-19T11:51:54;1.70;;;1.60;;
10347;SDS011;5220;43.192;23.284;2023-04-19T11:54:22;6.20;;;5.00;;
10347;SDS011;5220;43.192;23.284;2023-04-19T11:56:56;1.80;;;1.70;;
10347;SDS011;5220;43.192;23.284;2023-04-19T11:59:27;1.58;;;1.48;;
10347;SDS011;5220;43.192;23.284;2023-04-19T12:01:53;1.10;;;1.00;;
10347;SDS011;5220;43.192;23.284;2023-04-19T12:04:21;1.10;;;1.10;;
10347;SDS011;5220;43.192;23.284;2023-04-19T12:06:56;1.10;;;1.00;;
10347;SDS011;5220;43.192;23.284;2023-04-19T12:09:24;0.95;;;0.85;;
10347;SDS011;5220;43.192;23.284;2023-04-19T12:11:51;0.80;;;0.80;;
10347;SDS011;5220;43.192;23.284;2023-04-19T12:14:18;1.08;;;1.08;;
10347;SDS011;5220;43.192;23.284;2023-04-19T12:19:36;1.58;;;0.60;;
10347;SDS011;5220;43.192;23.284;2023-04-19T12:22:12;1.00;;;1.00;;
10347;SDS011;5220;43.192;23.284;2023-04-19T12:24:40;1.17;;;1.08;;
10347;SDS011;5220;43.192;23.284;2023-04-19T12:27:07;0.70;;;0.70;;
10347;SDS011;5220;43.192;23.284;2023-04-19T12:29:35;1.10;;;1.00;;
10347;SDS011;5220;43.192;23.284;2023-04-19T12:32:03;0.70;;;0.70;;
10347;SDS011;5220;43.192;23.284;2023-04-19T12:34:30;1.60;;;1.00;;
10347;SDS011;5220;43.192;23.284;2023-04-19T12:36:57;2.20;;;2.00;;
10347;SDS011;5220;43.192;23.284;2023-04-19T12:39:25;2.20;;;1.73;;
10347;SDS011;5220;43.192;23.284;2023-04-19T12:41:53;2.10;;;1.90;;
10347;SDS011;5220;43.192;23.284;2023-04-19T12:44:19;1.95;;;0.85;;
10347;SDS011;5220;43.192;23.284;2023-04-19T12:46:46;2.25;;;1.80;;
10347;SDS011;5220;43.192;23.284;2023-04-19T12:49:13;6.68;;;5.65;;
10347;SDS011;5220;43.192;23.284;2023-04-19T12:51:39;2.15;;;2.00;;
10347;SDS011;5220;43.192;23.284;2023-04-19T12:54:07;1.80;;;1.70;;
10347;SDS011;5220;43.192;23.284;2023-04-19T12:56:35;2.13;;;1.40;;
10347;SDS011;5220;43.192;23.284;2023-04-19T12:59:02;1.33;;;1.08;;
10347;SDS011;5220;43.192;23.284;2023-04-19T13:01:29;1.52;;;1.42;;
10347;SDS011;5220;43.192;23.284;2023-04-19T13:03:57;0.82;;;0.82;;
10347;SDS011;5220;43.192;23.284;2023-04-19T13:06:23;0.95;;;0.95;;
10347;SDS011;5220;43.192;23.284;2023-04-19T13:08:50;2.83;;;1.40;;
10347;SDS011;5220;43.192;23.284;2023-04-19T13:11:17;2.00;;;1.60;;
10347;SDS011;5220;43.192;23.284;2023-04-19T13:13:48;1.42;;;1.30;;
10347;SDS011;5220;43.192;23.284;2023-04-19T13:16:16;3.20;;;3.00;;
10347;SDS011;5220;43.192;23.284;2023-04-19T13:18:43;1.92;;;1.63;;
10347;SDS011;5220;43.192;23.284;2023-04-19T13:21:10;1.73;;;1.63;;
10347;SDS011;5220;43.192;23.284;2023-04-19T13:23:37;2.08;;;1.75;;
10347;SDS011;5220;43.192;23.284;2023-04-19T13:26:04;1.67;;;1.58;;
10347;SDS011;5220;43.192;23.284;2023-04-19T13:28:31;3.38;;;2.05;;
10347;SDS011;5220;43.192;23.284;2023-04-19T13:31:01;2.53;;;1.80;;
10347;SDS011;5220;43.192;23.284;2023-04-19T13:33:28;5.60;;;3.40;;
10347;SDS011;5220;43.192;23.284;2023-04-19T13:35:55;2.65;;;2.30;;
10347;SDS011;5220;43.192;23.284;2023-04-19T13:38:21;2.10;;;2.00;;
10347;SDS011;5220;43.192;23.284;2023-04-19T13:40:48;3.30;;;2.67;;
10347;SDS011;5220;43.192;23.284;2023-04-19T13:43:15;3.30;;;3.00;;
10347;SDS011;5220;43.192;23.284;2023-04-19T13:45:42;2.55;;;2.35;;
10347;SDS011;5220;43.192;23.284;2023-04-19T13:48:10;3.33;;;2.50;;
10347;SDS011;5220;43.192;23.284;2023-04-19T13:50:37;5.50;;;3.17;;
10347;SDS011;5220;43.192;23.284;2023-04-19T13:53:03;6.30;;;5.70;;
10347;SDS011;5220;43.192;23.284;2023-04-19T13:55:30;5.03;;;4.53;;
10347;SDS011;5220;43.192;23.284;2023-04-19T13:57:57;8.30;;;5.13;;
10347;SDS011;5220;43.192;23.284;2023-04-19T14:00:24;4.55;;;3.20;;
10347;SDS011;5220;43.192;23.284;2023-04-19T14:02:51;3.80;;;2.80;;
10347;SDS011;5220;43.192;23.284;2023-04-19T14:05:21;5.45;;;2.83;;
10347;SDS011;5220;43.192;23.284;2023-04-19T14:07:48;3.22;;;2.35;;
10347;SDS011;5220;43.192;23.284;2023-04-19T14:10:16;3.17;;;2.95;;
10347;SDS011;5220;43.192;23.284;2023-04-19T14:12:43;3.67;;;2.67;;
10347;SDS011;5220;43.192;23.284;2023-04-19T14:15:10;3.22;;;2.60;;
10347;SDS011;5220;43.192;23.284;2023-04-19T14:17:37;3.35;;;3.13;;
10347;SDS011;5220;43.192;23.284;2023-04-19T14:20:04;4.65;;;4.25;;
10347;SDS011;5220;43.192;23.284;2023-04-19T14:22:33;11.00;;;9.90;;
10347;SDS011;5220;43.192;23.284;2023-04-19T14:25:00;5.75;;;4.80;;
10347;SDS011;5220;43.192;23.284;2023-04-19T14:27:27;3.47;;;2.97;;
10347;SDS011;5220;43.192;23.284;2023-04-19T14:29:54;5.97;;;3.60;;
10347;SDS011;5220;43.192;23.284;2023-04-19T14:32:21;2.65;;;2.40;;
10347;SDS011;5220;43.192;23.284;2023-04-19T14:34:47;4.70;;;2.97;;
10347;SDS011;5220;43.192;23.284;2023-04-19T14:37:15;4.28;;;3.60;;
10347;SDS011;5220;43.192;23.284;2023-04-19T14:39:44;2.95;;;2.65;;
10347;SDS011;5220;43.192;23.284;2023-04-19T14:42:11;2.92;;;2.72;;
10347;SDS011;5220;43.192;23.284;2023-04-19T14:44:38;3.03;;;2.53;;
10347;SDS011;5220;43.192;23.284;2023-04-19T14:47:05;3.58;;;3.00;;
10347;SDS011;5220;43.192;23.284;2023-04-19T14:49:32;3.65;;;3.35;;
10347;SDS011;5220;43.192;23.284;2023-04-19T14:51:58;3.83;;;3.42;;